createdAt,value
2022-08-03T00:01:27.977Z,83.35
2022-08-03T00:03:57.081Z,83.38
2022-08-03T00:06:24.073Z,83.80
2022-08-03T00:08:51.379Z,84.00
2022-08-03T00:11:19.806Z,84.01
2022-08-03T00:13:46.984Z,83.79
2022-08-03T00:16:14.366Z,84.13
2022-08-03T00:18:41.811Z,83.75
2022-08-03T00:21:10.215Z,83.68
2022-08-03T00:23:51.406Z,84.12
2022-08-03T00:26:21.009Z,84.06
2022-08-03T00:28:48.458Z,84.06
2022-08-03T00:31:16.491Z,83.80
2022-08-03T00:33:59.493Z,83.17
2022-08-03T00:36:28.195Z,83.25
2022-08-03T00:38:56.450Z,82.85
2022-08-03T00:41:23.489Z,82.17
2022-08-03T00:43:51.041Z,81.04
2022-08-03T00:46:21.797Z,80.74
2022-08-03T00:48:53.323Z,80.43
2022-08-03T00:51:22.271Z,80.01
2022-08-03T00:53:49.492Z,79.76
2022-08-03T00:56:17.596Z,79.64
2022-08-03T00:58:46.480Z,79.51
2022-08-03T01:01:13.672Z,79.64
2022-08-03T01:03:41.092Z,79.32
2022-08-03T01:06:20.519Z,79.09
2022-08-03T01:08:54.667Z,79.21
2022-08-03T01:12:01.259Z,78.57
2022-08-03T01:14:42.317Z,78.32
2022-08-03T01:17:14.978Z,77.79
2022-08-03T01:19:51.997Z,77.71
2022-08-03T01:22:37.833Z,77.49
2022-08-03T01:25:42.459Z,77.25
2022-08-03T01:28:28.051Z,76.97
2022-08-03T01:31:01.606Z,76.51
2022-08-03T01:33:37.262Z,76.79
2022-08-03T01:36:07.962Z,77.32
2022-08-03T01:38:38.713Z,77.07
2022-08-03T01:41:09.616Z,77.19
2022-08-03T01:44:28.173Z,77.05
2022-08-03T01:46:26.654Z,76.93
2022-08-03T01:48:55.430Z,77.26
2022-08-03T01:51:22.555Z,77.23
2022-08-03T01:53:51.394Z,77.34
2022-08-03T01:56:22.527Z,77.58
2022-08-03T01:58:52.101Z,77.24
2022-08-03T02:01:21.775Z,76.82
2022-08-03T02:04:00.263Z,77.14
2022-08-03T02:07:01.100Z,76.76
2022-08-03T02:09:23.016Z,76.16
2022-08-03T02:11:51.955Z,76.40
2022-08-03T02:14:21.314Z,76.47
2022-08-03T02:16:50.059Z,76.08
2022-08-03T02:19:19.267Z,75.70
2022-08-03T02:21:57.448Z,75.31
2022-08-03T02:24:30.082Z,75.56
2022-08-03T02:26:58.786Z,74.89
2022-08-03T02:29:40.071Z,75.20
2022-08-03T02:32:17.278Z,74.91
2022-08-03T02:34:47.486Z,75.34
2022-08-03T02:37:18.272Z,75.18
2022-08-03T02:39:47.008Z,74.92
2022-08-03T02:42:17.464Z,74.54
2022-08-03T02:44:48.806Z,74.28
2022-08-03T02:47:21.059Z,74.25
2022-08-03T02:49:52.438Z,74.75
2022-08-03T02:52:23.559Z,74.30
2022-08-03T02:54:55.047Z,73.98
2022-08-03T02:57:23.403Z,74.34
2022-08-03T02:59:52.877Z,74.43
2022-08-03T03:02:22.104Z,74.23
2022-08-03T03:05:01.335Z,74.29
2022-08-03T03:07:51.841Z,73.22
2022-08-03T03:10:23.902Z,73.21
2022-08-03T03:12:55.476Z,73.71
2022-08-03T03:15:24.522Z,73.04
2022-08-03T03:17:53.628Z,73.20
2022-08-03T03:20:29.370Z,72.52
2022-08-03T03:23:00.922Z,72.46
2022-08-03T03:25:32.198Z,72.81
2022-08-03T03:28:04.019Z,72.41
2022-08-03T03:30:34.298Z,72.63
2022-08-03T03:33:02.876Z,71.99
2022-08-03T03:35:30.879Z,71.59
2022-08-03T03:38:06.919Z,70.48
2022-08-03T03:40:36.027Z,70.40
2022-08-03T03:43:03.727Z,69.63
2022-08-03T03:45:31.601Z,68.73
2022-08-03T03:48:01.023Z,68.96
2022-08-03T03:50:30.077Z,66.73
2022-08-03T03:53:00.146Z,65.09
2022-08-03T03:55:28.665Z,64.97
2022-08-03T03:57:55.746Z,63.92
2022-08-03T04:00:23.517Z,62.92
2022-08-03T04:02:50.509Z,62.32
2022-08-03T04:05:36.263Z,62.25
2022-08-03T04:08:35.931Z,62.09
2022-08-03T04:11:07.561Z,62.31
2022-08-03T04:13:40.902Z,61.43
2022-08-03T04:16:12.351Z,61.04
2022-08-03T04:18:42.422Z,60.78
2022-08-03T04:21:14.527Z,60.21
2022-08-03T04:23:45.222Z,59.80
2022-08-03T04:26:15.259Z,58.67
2022-08-03T04:28:49.498Z,58.75
2022-08-03T04:31:18.466Z,57.86
2022-08-03T04:33:47.251Z,58.18
2022-08-03T04:36:17.743Z,56.77
2022-08-03T04:38:59.113Z,55.91
2022-08-03T04:41:30.979Z,56.29
2022-08-03T04:44:00.972Z,55.40
2022-08-03T04:46:53.663Z,55.56
2022-08-03T04:49:24.947Z,54.94
2022-08-03T04:51:53.387Z,54.19
2022-08-03T04:54:20.287Z,55.31
2022-08-03T04:56:47.656Z,55.85
2022-08-03T04:59:15.141Z,57.01
2022-08-03T05:01:42.473Z,58.00
2022-08-03T05:04:09.865Z,57.61
2022-08-03T05:06:37.254Z,56.01
2022-08-03T05:09:15.076Z,55.38
2022-08-03T05:12:02.350Z,55.07
2022-08-03T05:14:29.282Z,54.64
2022-08-03T05:16:56.233Z,53.98
2022-08-03T05:19:25.036Z,52.90
2022-08-03T05:21:52.990Z,51.83
2022-08-03T05:24:20.305Z,52.71
2022-08-03T05:26:48.058Z,51.25
2022-08-03T05:29:15.549Z,52.03
2022-08-03T05:31:43.882Z,51.68
2022-08-03T05:34:13.253Z,52.33
2022-08-03T05:36:40.765Z,51.05
2022-08-03T05:39:07.770Z,50.27
2022-08-03T05:41:37.015Z,50.30
2022-08-03T05:44:05.002Z,49.63
2022-08-03T05:46:32.578Z,50.53
2022-08-03T05:48:59.926Z,50.70
2022-08-03T05:51:27.844Z,51.37
2022-08-03T05:53:54.901Z,53.39
2022-08-03T05:56:26.635Z,53.98
2022-08-03T05:59:28.712Z,55.39
2022-08-03T06:01:52.881Z,56.47
2022-08-03T06:04:22.975Z,57.23
2022-08-03T06:06:50.926Z,58.03
2022-08-03T06:09:21.481Z,58.41
2022-08-03T06:11:48.564Z,58.23
2022-08-03T06:14:15.544Z,58.90
2022-08-03T06:16:42.951Z,59.21
2022-08-03T06:19:09.935Z,59.10
2022-08-03T06:21:37.977Z,59.85
2022-08-03T06:24:07.552Z,59.60
2022-08-03T06:26:35.733Z,60.15
2022-08-03T06:29:03.954Z,59.76
2022-08-03T06:31:32.767Z,60.18
2022-08-03T06:34:31.540Z,60.54
2022-08-03T06:36:52.322Z,60.52
2022-08-03T06:39:21.031Z,60.31
2022-08-03T06:41:52.895Z,60.21
2022-08-03T06:44:22.832Z,59.88
2022-08-03T06:46:49.950Z,59.78
2022-08-03T06:49:17.309Z,60.22
2022-08-03T06:52:37.461Z,60.15
2022-08-03T06:54:33.219Z,60.85
2022-08-03T06:57:00.853Z,60.41
2022-08-03T07:00:10.656Z,60.19
2022-08-03T07:02:19.247Z,60.05
2022-08-03T07:04:48.133Z,59.58
2022-08-03T07:07:15.159Z,59.59
2022-08-03T07:09:42.507Z,60.54
2022-08-03T07:12:24.766Z,60.51
2022-08-03T07:14:54.566Z,60.19
2022-08-03T07:17:24.060Z,61.15
2022-08-03T07:19:51.691Z,60.50
2022-08-03T07:22:19.191Z,60.59
2022-08-03T07:24:47.906Z,60.31
2022-08-03T07:27:16.626Z,60.98
2022-08-03T07:29:43.940Z,61.59
2022-08-03T07:32:11.051Z,61.02
2022-08-03T07:34:38.128Z,60.57
2022-08-03T07:37:05.862Z,60.38
2022-08-03T07:39:32.916Z,60.23
2022-08-03T07:42:01.126Z,59.95
2022-08-03T07:44:29.357Z,59.06
2022-08-03T07:46:57.534Z,58.67
2022-08-03T07:49:25.544Z,58.33
2022-08-03T07:52:11.587Z,58.51
2022-08-03T07:54:38.890Z,59.51
2022-08-03T07:57:06.458Z,58.92
2022-08-03T07:59:57.190Z,59.16
2022-08-03T08:02:23.860Z,59.07
2022-08-03T08:04:51.106Z,59.10
2022-08-03T08:07:18.327Z,58.41
2022-08-03T08:09:47.993Z,58.15
2022-08-03T08:12:16.085Z,57.44
2022-08-03T08:14:45.950Z,56.08
2022-08-03T08:17:13.815Z,56.10
2022-08-03T08:19:51.360Z,55.07
2022-08-03T08:22:24.796Z,55.18
2022-08-03T08:25:01.288Z,55.79
2022-08-03T08:28:29.132Z,55.93
2022-08-03T08:30:19.449Z,55.90
2022-08-03T08:32:48.041Z,55.30
2022-08-03T08:35:18.708Z,56.20
2022-08-03T08:37:51.147Z,56.40
2022-08-03T08:40:22.179Z,56.07
2022-08-03T08:42:58.494Z,55.86
2022-08-03T08:45:45.412Z,55.46
2022-08-03T08:48:14.928Z,53.60
2022-08-03T08:50:43.129Z,54.92
2022-08-03T08:53:18.200Z,53.85
2022-08-03T08:56:02.629Z,53.11
2022-08-03T08:58:30.993Z,52.52
2022-08-03T09:00:58.173Z,52.18
2022-08-03T09:03:37.609Z,51.89
2022-08-03T09:07:04.443Z,51.79
2022-08-03T09:10:10.508Z,52.99
2022-08-03T09:12:51.596Z,52.90
2022-08-03T09:24:16.426Z,54.03
2022-08-03T09:27:26.185Z,54.16
2022-08-03T09:29:55.159Z,53.95
2022-08-03T09:32:28.240Z,53.00
2022-08-03T09:35:09.467Z,53.41
2022-08-03T09:38:06.084Z,53.56
2022-08-03T09:40:36.828Z,54.33
2022-08-03T09:43:04.869Z,54.70
2022-08-03T09:45:32.985Z,55.06
2022-08-03T09:48:30.265Z,54.57
2022-08-03T09:51:13.498Z,54.36
2022-08-03T09:56:47.883Z,54.93
2022-08-03T09:59:26.559Z,55.05
2022-08-03T10:02:03.775Z,54.71
2022-08-03T10:04:30.960Z,52.66
2022-08-03T10:07:20.998Z,51.93
2022-08-03T10:10:31.054Z,49.90
2022-08-03T10:13:01.481Z,49.23
2022-08-03T10:16:23.840Z,48.58
2022-08-03T10:18:21.114Z,49.85
2022-08-03T10:21:04.424Z,50.70
2022-08-03T10:23:44.888Z,51.74
2022-08-03T10:26:17.691Z,53.32
2022-08-03T10:28:57.268Z,53.39
2022-08-03T10:31:25.970Z,54.28
2022-08-03T10:33:59.490Z,54.42
2022-08-03T10:36:31.245Z,54.19
2022-08-03T10:39:01.732Z,54.93
2022-08-03T10:41:35.564Z,54.89
2022-08-03T10:44:03.224Z,55.62
2022-08-03T10:46:30.440Z,55.52
2022-08-03T10:48:58.224Z,55.48
2022-08-03T10:51:31.616Z,55.15
2022-08-03T10:54:02.228Z,55.73
2022-08-03T10:56:52.010Z,55.36
2022-08-03T10:59:27.818Z,54.78
2022-08-03T11:02:00.382Z,54.07
2022-08-03T11:04:30.386Z,54.11
2022-08-03T11:07:23.735Z,54.18
2022-08-03T11:09:57.077Z,53.04
2022-08-03T11:12:32.831Z,52.99
2022-08-03T11:15:09.360Z,52.94
2022-08-03T11:17:46.270Z,52.08
2022-08-03T11:20:52.616Z,52.83
2022-08-03T11:24:05.253Z,53.36
2022-08-03T11:26:34.345Z,53.85
2022-08-03T11:29:29.417Z,54.87
2022-08-03T11:31:59.427Z,55.38
2022-08-03T11:34:29.202Z,54.87
2022-08-03T11:37:20.620Z,55.08
2022-08-03T11:39:51.771Z,55.45
2022-08-03T11:42:25.682Z,55.98
2022-08-03T11:45:07.039Z,55.54
2022-08-03T11:47:37.941Z,55.22
2022-08-03T11:50:20.152Z,54.59
2022-08-03T11:52:48.776Z,54.87
2022-08-03T11:55:22.220Z,54.31
2022-08-03T11:58:58.314Z,54.59
2022-08-03T12:00:37.203Z,54.18
2022-08-03T12:03:07.918Z,53.90
2022-08-03T12:05:54.780Z,53.00
2022-08-03T12:08:28.425Z,52.69
2022-08-03T12:10:56.996Z,52.56
2022-08-03T12:14:26.825Z,52.64
2022-08-03T12:16:22.976Z,52.50
2022-08-03T12:18:58.953Z,52.42
2022-08-03T12:21:26.099Z,52.28
2022-08-03T12:24:00.556Z,51.74
2022-08-03T12:26:29.792Z,52.00
2022-08-03T12:29:22.787Z,52.86
2022-08-03T12:31:50.095Z,52.02
2022-08-03T12:34:17.736Z,50.75
2022-08-03T12:37:00.220Z,50.91
2022-08-03T12:39:31.059Z,50.79
2022-08-03T12:42:00.009Z,51.46
2022-08-03T12:44:35.973Z,50.59
2022-08-03T12:47:04.754Z,50.85
2022-08-03T12:49:52.294Z,52.35
2022-08-03T12:52:21.959Z,51.12
2022-08-03T12:55:01.303Z,49.97
2022-08-03T12:57:47.581Z,51.18
2022-08-03T13:00:21.383Z,51.65
2022-08-03T13:03:41.989Z,51.27
2022-08-03T13:06:19.989Z,52.02
2022-08-03T13:08:56.213Z,52.50
2022-08-03T13:11:55.442Z,52.69
2022-08-03T13:14:15.316Z,52.98
2022-08-03T13:16:47.325Z,52.63
2022-08-03T13:19:19.518Z,52.81
2022-08-03T13:22:01.615Z,52.78
2022-08-03T13:24:33.025Z,53.77
2022-08-03T13:27:22.012Z,52.56
2022-08-03T13:29:49.079Z,52.47
2022-08-03T13:32:16.194Z,51.07
2022-08-03T13:34:45.046Z,51.44
2022-08-03T13:37:13.070Z,51.39
2022-08-03T13:39:57.973Z,51.18
2022-08-03T13:42:35.153Z,51.98
2022-08-03T13:45:06.481Z,52.57
2022-08-03T13:47:34.015Z,51.89
2022-08-03T13:50:03.027Z,52.36
2022-08-03T13:52:34.356Z,51.80
2022-08-03T13:55:06.794Z,51.54
2022-08-03T13:58:02.505Z,51.50
2022-08-03T14:00:29.252Z,51.72
2022-08-03T14:03:14.936Z,50.73
2022-08-03T14:05:45.755Z,50.98
2022-08-03T14:08:16.076Z,49.93
2022-08-03T14:10:45.131Z,50.14
2022-08-03T14:13:17.809Z,49.31
2022-08-03T14:15:51.996Z,49.53
2022-08-03T14:18:28.657Z,49.09
2022-08-03T14:21:05.798Z,48.94
2022-08-03T14:23:35.781Z,47.93
2022-08-03T14:26:04.472Z,48.58
2022-08-03T14:28:34.853Z,48.91
2022-08-03T14:31:08.449Z,48.19
2022-08-03T14:33:54.227Z,48.00
2022-08-03T14:36:24.270Z,48.16
2022-08-03T14:39:01.519Z,47.59
2022-08-03T14:41:29.321Z,47.42
2022-08-03T14:44:02.118Z,47.39
2022-08-03T14:46:33.573Z,47.61
2022-08-03T14:50:33.074Z,48.30
2022-08-03T14:51:51.345Z,48.60
2022-08-03T14:54:21.023Z,48.78
2022-08-03T14:56:49.707Z,48.50
2022-08-03T14:59:16.771Z,48.46
2022-08-03T15:02:06.042Z,48.76
2022-08-03T15:04:33.926Z,48.17
2022-08-03T15:07:00.930Z,48.11
2022-08-03T15:09:31.592Z,47.73
2022-08-03T15:12:01.751Z,48.27
2022-08-03T15:14:33.354Z,47.80
2022-08-03T15:17:06.282Z,48.44
2022-08-03T15:20:01.594Z,48.98
2022-08-03T15:22:25.301Z,48.41
2022-08-03T15:26:03.814Z,48.38
2022-08-03T15:28:03.493Z,48.13
2022-08-03T15:30:36.111Z,48.66
2022-08-03T15:33:03.916Z,48.24
2022-08-03T15:35:33.354Z,48.69
2022-08-03T15:38:00.774Z,49.31
2022-08-03T15:40:29.235Z,49.78
2022-08-03T15:42:58.577Z,50.34
2022-08-03T15:45:25.879Z,50.67
2022-08-03T15:48:10.439Z,50.32
2022-08-03T15:50:39.946Z,51.00
2022-08-03T15:53:07.565Z,51.33
2022-08-03T15:55:38.570Z,51.18
2022-08-03T15:59:11.423Z,50.60
2022-08-03T16:00:53.152Z,50.46
2022-08-03T16:03:20.215Z,50.92
2022-08-03T16:05:49.724Z,51.42
2022-08-03T16:08:22.161Z,51.25
2022-08-03T16:10:52.108Z,50.69
2022-08-03T16:13:20.131Z,51.07
2022-08-03T16:15:51.174Z,50.94
2022-08-03T16:18:18.944Z,50.71
2022-08-03T16:20:48.859Z,50.79
2022-08-03T16:23:19.071Z,51.23
2022-08-03T16:25:51.458Z,51.68
2022-08-03T16:28:19.257Z,51.52
2022-08-03T16:30:48.937Z,51.93
2022-08-03T16:33:17.783Z,52.27
2022-08-03T16:35:48.668Z,52.12
2022-08-03T16:38:19.295Z,52.08
2022-08-03T16:40:55.826Z,52.29
2022-08-03T16:43:34.710Z,52.28
2022-08-03T16:46:06.190Z,52.25
2022-08-03T16:48:36.351Z,52.71
2022-08-03T16:51:03.751Z,52.95
2022-08-03T16:53:33.483Z,53.21
2022-08-03T16:56:18.501Z,53.28
2022-08-03T16:58:46.164Z,53.36
2022-08-03T17:01:21.485Z,53.79
2022-08-03T17:04:05.302Z,54.42
2022-08-03T17:06:38.138Z,53.94
2022-08-03T17:09:21.309Z,54.37
2022-08-03T17:11:49.537Z,54.67
2022-08-03T17:14:22.871Z,54.75
2022-08-03T17:17:02.393Z,55.01
2022-08-03T17:19:33.764Z,55.30
2022-08-03T17:22:15.977Z,55.75
2022-08-03T17:24:52.142Z,55.72
2022-08-03T17:28:50.422Z,56.44
2022-08-03T17:30:47.823Z,56.34
2022-08-03T17:33:20.442Z,56.45
2022-08-03T17:35:58.610Z,56.81
2022-08-03T17:38:34.679Z,57.02
2022-08-03T17:41:10.903Z,57.27
2022-08-03T17:44:15.838Z,57.50
2022-08-03T17:46:48.076Z,57.66
2022-08-03T17:49:24.650Z,57.78
2022-08-03T17:52:20.770Z,58.08
2022-08-03T17:55:55.276Z,58.46
2022-08-03T17:58:03.479Z,58.44
2022-08-03T18:00:51.545Z,58.42
2022-08-03T18:03:57.792Z,58.54
2022-08-03T18:06:30.754Z,58.60
2022-08-03T18:10:04.898Z,59.02
2022-08-03T18:12:04.321Z,59.03
2022-08-03T18:14:57.923Z,59.04
2022-08-03T18:18:01.823Z,59.42
2022-08-03T18:20:41.045Z,59.46
2022-08-03T18:23:24.659Z,59.31
2022-08-03T18:26:12.108Z,59.70
2022-08-03T18:28:44.085Z,59.59
2022-08-03T18:32:00.503Z,59.88
2022-08-03T18:36:54.782Z,60.36
2022-08-03T18:39:25.587Z,60.29
2022-08-03T18:41:53.055Z,60.06
2022-08-03T18:44:53.313Z,60.22
2022-08-03T18:47:50.514Z,60.43
2022-08-03T18:50:33.584Z,60.37
2022-08-03T18:53:21.228Z,60.13
2022-08-03T18:56:07.973Z,60.36
2022-08-03T18:58:56.124Z,60.36
2022-08-03T19:01:58.451Z,60.23
2022-08-03T19:04:50.997Z,60.83
2022-08-03T19:07:25.673Z,60.39
2022-08-03T19:09:59.203Z,60.68
2022-08-03T19:12:59.125Z,60.63
2022-08-03T19:15:36.360Z,61.12
2022-08-03T19:18:08.863Z,60.77
2022-08-03T19:20:38.319Z,60.92
2022-08-03T19:23:06.909Z,60.92
2022-08-03T19:25:39.259Z,60.79
2022-08-03T19:28:19.255Z,60.52
2022-08-03T19:31:02.848Z,60.67
2022-08-03T19:33:55.665Z,61.03
2022-08-03T19:36:29.182Z,61.32
2022-08-03T19:38:57.443Z,61.91
2022-08-03T19:41:31.202Z,62.09
2022-08-03T19:44:20.055Z,62.27
2022-08-03T19:46:54.276Z,63.08
2022-08-03T19:50:06.283Z,62.73
2022-08-03T19:52:20.879Z,63.10
2022-08-03T19:54:55.220Z,63.67
2022-08-03T19:57:24.941Z,63.85
2022-08-03T19:59:53.848Z,63.57
2022-08-03T20:02:31.267Z,63.95
2022-08-03T20:05:15.846Z,63.93
2022-08-03T20:07:48.322Z,64.40
2022-08-03T20:10:17.646Z,64.39
2022-08-03T20:12:46.897Z,65.05
2022-08-03T20:15:18.330Z,64.79
2022-08-03T20:17:56.373Z,65.34
2022-08-03T20:20:34.318Z,65.22
2022-08-03T20:23:07.142Z,65.11
2022-08-03T20:25:48.637Z,65.53
2022-08-03T20:28:31.255Z,65.49
2022-08-03T20:30:59.868Z,65.93
2022-08-03T20:33:48.353Z,66.53
2022-08-03T20:36:15.871Z,66.82
2022-08-03T20:38:47.885Z,66.90
2022-08-03T20:41:17.309Z,66.79
2022-08-03T20:43:45.782Z,66.76
2022-08-03T20:46:31.700Z,67.43
2022-08-03T20:49:03.761Z,67.18
2022-08-03T20:54:31.043Z,67.42
2022-08-03T20:57:03.794Z,67.52
2022-08-03T20:59:50.730Z,67.74
2022-08-03T21:02:30.232Z,68.12
2022-08-03T21:05:02.967Z,67.98
2022-08-03T21:08:06.950Z,68.02
2022-08-03T21:10:38.131Z,68.09
2022-08-03T21:13:04.674Z,59.96
2022-08-03T21:13:07.585Z,67.43
2022-08-03T21:13:18.521Z,67.76
2022-08-03T21:16:05.453Z,67.58
2022-08-03T21:18:45.924Z,67.68
2022-08-03T21:21:15.536Z,67.65
2022-08-03T21:23:47.813Z,68.18
2022-08-03T21:26:18.217Z,68.32
2022-08-03T21:28:47.173Z,68.77
2022-08-03T21:31:22.327Z,68.73
2022-08-03T21:33:58.154Z,68.97
2022-08-03T21:36:27.845Z,69.07
2022-08-03T21:38:57.499Z,69.40
2022-08-03T21:41:32.976Z,68.96
2022-08-03T21:44:01.747Z,69.49
2022-08-03T21:46:35.097Z,69.69
2022-08-03T21:50:06.776Z,69.55
2022-08-03T21:52:06.087Z,70.01
2022-08-03T21:54:40.979Z,69.82
2022-08-03T21:57:18.248Z,70.30
2022-08-03T22:00:00.561Z,70.66
2022-08-03T22:02:32.539Z,70.60
2022-08-03T22:05:00.494Z,71.23
2022-08-03T22:07:33.525Z,71.13
2022-08-03T22:10:02.805Z,71.55
2022-08-03T22:12:31.649Z,71.83
2022-08-03T22:15:02.142Z,71.47
2022-08-03T22:17:54.772Z,71.99
2022-08-03T22:20:20.536Z,71.74
2022-08-03T22:22:55.588Z,71.86
2022-08-03T22:25:30.915Z,72.04
2022-08-03T22:28:02.923Z,71.98
2022-08-03T22:30:31.769Z,71.82
2022-08-03T22:33:00.274Z,72.12
2022-08-03T22:35:28.244Z,71.96
2022-08-03T22:37:57.415Z,71.87
2022-08-03T22:40:24.957Z,72.02
2022-08-03T22:42:52.707Z,72.51
2022-08-03T22:46:06.295Z,72.34
2022-08-03T22:48:07.881Z,72.65
2022-08-03T22:50:35.654Z,72.47
2022-08-03T22:53:03.133Z,72.75
2022-08-03T22:55:31.188Z,73.16
2022-08-03T22:57:58.461Z,73.34
2022-08-03T23:00:25.640Z,73.37
2022-08-03T23:02:56.453Z,73.38
2022-08-03T23:06:01.224Z,73.06
2022-08-03T23:08:14.928Z,73.20
2022-08-03T23:10:47.078Z,73.21
2022-08-03T23:13:17.294Z,73.24
2022-08-03T23:15:56.080Z,73.33
2022-08-03T23:18:24.752Z,73.58
2022-08-03T23:20:57.938Z,73.99
2022-08-03T23:23:25.515Z,74.08
2022-08-03T23:25:53.009Z,74.19
2022-08-03T23:28:21.584Z,74.60
2022-08-03T23:30:51.005Z,74.68
2022-08-03T23:33:18.659Z,74.60
2022-08-03T23:36:28.418Z,74.99
2022-08-03T23:38:47.578Z,74.99
2022-08-03T23:41:17.899Z,75.59
2022-08-03T23:43:51.654Z,75.69
2022-08-03T23:46:22.605Z,76.06
2022-08-03T23:48:50.912Z,76.12
2022-08-03T23:51:29.979Z,75.81
2022-08-03T23:54:06.395Z,76.17
2022-08-03T23:56:36.360Z,76.34
2022-08-03T23:59:21.960Z,76.14
